Time;durP1;ratioP1;P1;durP2;ratioP2;P2;SDS_P1;SDS_P2;PMS_P1;PMS_P2;Temp;Humidity;BMP_temperature;BMP_pressure;BME280_temperature;BME280_humidity;BME280_pressure;Samples;Min_cycle;Max_cycle;Signal;HPM_P1;HPM_P2
2022/01/16 00:01:00;;;;;;;;;14.00;12.00;;;;;21.11;49.68;101816.68;112998;1241;19146;-68
2022/01/16 00:06:12;;;;;;;;;11.67;11.33;;;;;21.08;49.66;101799.98;113016;1241;18740;-68
2022/01/16 00:08:39;;;;;;;;;13.33;13.00;;;;;21.09;49.49;101797.41;113081;1242;19975;-68
2022/01/16 00:11:04;;;;;;;;;12.00;12.00;;;;;21.08;49.52;101798.02;113049;1241;18385;-69
2022/01/16 00:13:30;;;;;;;;;14.00;13.00;;;;;21.08;49.63;101800.70;112994;1242;20065;-69
2022/01/16 00:15:56;;;;;;;;;16.50;14.50;;;;;21.08;49.40;101795.52;112965;1242;19851;-69
2022/01/16 00:18:25;;;;;;;;;17.00;14.50;;;;;21.08;49.45;101786.05;113007;1242;22755;-68
2022/01/16 00:20:51;;;;;;;;;14.00;12.00;;;;;21.07;49.41;101767.58;112978;1242;18727;-70
2022/01/16 00:23:23;;;;;;;;;14.00;13.00;;;;;21.07;49.55;101759.02;112983;1242;19698;-68
2022/01/16 00:25:49;;;;;;;;;15.33;12.67;;;;;21.07;49.39;101760.86;112971;1242;21803;-68
2022/01/16 00:28:15;;;;;;;;;12.50;12.00;;;;;21.09;49.32;101763.94;112980;1242;18825;-71
2022/01/16 00:30:41;;;;;;;;;12.00;10.00;;;;;21.11;49.32;101767.60;113038;1241;22960;-70
2022/01/16 00:33:07;;;;;;;;;13.50;12.00;;;;;21.07;49.14;101767.44;113006;1242;19317;-70
2022/01/16 00:35:33;;;;;;;;;14.00;12.00;;;;;21.12;49.20;101781.10;113026;1242;19101;-71
2022/01/16 00:37:59;;;;;;;;;13.50;13.00;;;;;21.13;49.13;101782.27;112965;1241;22189;-71
2022/01/16 00:40:24;;;;;;;;;14.00;13.00;;;;;21.13;49.38;101775.20;112942;1242;19077;-70
2022/01/16 00:42:50;;;;;;;;;10.00;10.00;;;;;21.12;49.39;101759.15;112992;1242;18512;-70
2022/01/16 00:45:16;;;;;;;;;11.00;11.00;;;;;21.12;49.32;101735.50;112944;1241;22362;-70
2022/01/16 00:47:42;;;;;;;;;13.00;13.00;;;;;21.11;49.27;101732.87;112980;1242;18873;-70
2022/01/16 00:50:08;;;;;;;;;16.00;15.00;;;;;21.11;49.09;101746.13;113024;1242;18573;-70
2022/01/16 00:52:34;;;;;;;;;12.50;12.00;;;;;21.12;49.29;101730.25;112990;1241;19260;-70
2022/01/16 00:55:03;;;;;;;;;17.50;11.00;;;;;21.11;49.06;101728.69;113053;1242;18999;-69
2022/01/16 00:57:29;;;;;;;;;13.00;12.67;;;;;21.12;49.13;101762.02;113014;1242;18847;-69
2022/01/16 00:59:55;;;;;;;;;13.00;13.00;;;;;21.12;49.10;101766.74;113052;1242;19896;-69
2022/01/16 01:02:21;;;;;;;;;12.50;12.00;;;;;21.13;49.12;101762.15;113084;1242;18813;-69
2022/01/16 01:04:47;;;;;;;;;16.00;14.33;;;;;21.12;48.99;101754.62;113001;1242;21946;-68
2022/01/16 01:07:13;;;;;;;;;14.00;12.67;;;;;21.12;49.09;101755.91;113035;1241;19360;-69
2022/01/16 01:09:39;;;;;;;;;12.50;10.00;;;;;21.11;48.89;101731.60;113021;1241;22672;-69
2022/01/16 01:12:06;;;;;;;;;16.00;13.00;;;;;21.11;49.05;101737.05;113017;1242;18671;-69
2022/01/16 01:14:40;;;;;;;;;16.00;16.00;;;;;21.11;49.08;101739.43;112962;1242;19334;-70
2022/01/16 01:17:08;;;;;;;;;14.00;13.00;;;;;21.11;49.01;101749.79;112987;1241;18737;-69
2022/01/16 01:19:35;;;;;;;;;13.00;12.50;;;;;21.10;48.86;101728.78;112985;1242;18962;-69
2022/01/16 01:22:01;;;;;;;;;12.67;12.00;;;;;21.09;48.91;101734.48;113088;1242;20742;-69
2022/01/16 01:24:27;;;;;;;;;15.00;13.00;;;;;21.10;48.93;101742.79;113074;1242;19072;-69
2022/01/16 01:26:59;;;;;;;;;13.33;12.00;;;;;21.08;48.89;101739.13;112993;1242;18719;-68
2022/01/16 01:29:28;;;;;;;;;15.33;13.67;;;;;21.09;48.78;101714.16;113000;1242;20942;-69
2022/01/16 01:31:54;;;;;;;;;13.67;13.00;;;;;21.08;48.94;101694.77;113039;1241;18634;-70
2022/01/16 01:34:20;;;;;;;;;13.00;12.00;;;;;21.08;48.76;101695.48;112944;1242;18564;-69
2022/01/16 01:36:48;;;;;;;;;16.50;15.00;;;;;21.09;48.63;101701.27;113044;1242;19792;-68
2022/01/16 01:39:14;;;;;;;;;13.67;12.67;;;;;21.09;48.68;101700.52;113022;1242;19302;-69
2022/01/16 01:41:40;;;;;;;;;13.00;12.00;;;;;21.09;48.63;101709.05;112977;1242;18534;-69
2022/01/16 01:52:19;;;;;;;;;13.00;12.00;;;;;21.08;48.43;101662.46;113002;1242;19728;-68
2022/01/16 01:54:45;;;;;;;;;16.00;13.00;;;;;21.06;48.37;101583.40;112985;1242;18748;-68
2022/01/16 01:57:11;;;;;;;;;19.50;15.50;;;;;21.05;48.38;101584.48;112946;1242;22362;-71
2022/01/16 01:59:39;;;;;;;;;14.50;13.00;;;;;21.07;48.45;101588.77;112957;1242;19350;-68
2022/01/16 02:02:05;;;;;;;;;14.00;13.67;;;;;21.07;48.61;101577.55;112997;1241;18643;-69
2022/01/16 02:04:31;;;;;;;;;12.00;11.00;;;;;21.06;48.24;101569.60;112974;1242;23556;-70
2022/01/16 02:06:57;;;;;;;;;14.00;13.00;;;;;21.08;48.36;101594.66;112982;1242;20619;-69
2022/01/16 02:09:23;;;;;;;;;13.00;13.00;;;;;21.09;48.22;101622.02;113025;1242;19090;-69
2022/01/16 02:11:49;;;;;;;;;14.00;12.00;;;;;21.08;48.26;101622.08;113003;1242;18523;-70
2022/01/16 02:14:25;;;;;;;;;13.00;12.00;;;;;21.09;48.10;101626.95;113042;1242;19423;-70
2022/01/16 02:28:04;;;;;;;;;12.00;10.67;;;;;21.07;48.13;101602.73;112992;1242;18756;-70
2022/01/16 02:35:58;;;;;;;;;14.00;14.00;;;;;21.07;47.95;101594.80;112995;1242;18735;-71
2022/01/16 02:38:24;;;;;;;;;13.00;12.00;;;;;21.07;48.12;101601.84;112982;1242;23214;-71
2022/01/16 02:40:50;;;;;;;;;15.00;13.50;;;;;21.07;47.97;101604.77;112959;1241;18567;-68
2022/01/16 02:43:18;;;;;;;;;13.50;12.50;;;;;21.07;47.91;101603.00;113006;1242;18687;-69
2022/01/16 02:45:48;;;;;;;;;14.67;14.00;;;;;21.07;47.90;101615.85;112994;1241;21659;-69
2022/01/16 02:48:14;;;;;;;;;14.33;13.00;;;;;21.07;47.95;101617.08;112937;1242;20253;-69
2022/01/16 02:50:40;;;;;;;;;10.00;10.00;;;;;21.07;47.88;101610.35;112974;1241;19190;-69
2022/01/16 02:53:09;;;;;;;;;12.50;11.00;;;;;21.08;47.96;101617.89;113006;1242;19706;-68
2022/01/16 02:55:39;;;;;;;;;12.00;10.00;;;;;21.10;47.80;101626.68;113042;1241;19189;-69
2022/01/16 02:58:05;;;;;;;;;13.00;12.00;;;;;21.09;47.95;101625.98;113075;1241;18613;-68
2022/01/16 03:00:31;;;;;;;;;13.00;12.00;;;;;21.09;47.73;101623.86;112999;1242;19205;-68
2022/01/16 03:02:57;;;;;;;;;13.00;12.50;;;;;21.08;47.69;101617.59;112982;1242;21967;-67
2022/01/16 03:05:23;;;;;;;;;12.00;12.00;;;;;21.08;47.70;101605.73;112970;1242;19036;-71
2022/01/16 03:07:49;;;;;;;;;13.00;10.00;;;;;21.08;47.64;101597.41;113043;1242;19221;-70
2022/01/16 03:10:33;;;;;;;;;12.00;12.00;;;;;21.08;47.76;101595.58;112977;1242;18428;-70
2022/01/16 03:12:59;;;;;;;;;10.00;10.00;;;;;21.08;47.67;101600.14;113041;1242;18672;-70
2022/01/16 03:15:25;;;;;;;;;12.00;10.00;;;;;21.09;47.69;101599.36;113005;1242;19143;-70
2022/01/16 03:23:18;;;;;;;;;9.67;9.33;;;;;21.05;47.68;101580.44;112699;1243;21872;-69
2022/01/16 03:25:43;;;;;;;;;9.67;9.67;;;;;21.08;47.68;101583.20;112964;1242;20728;-69
2022/01/16 03:28:09;;;;;;;;;17.50;13.00;;;;;21.07;47.50;101576.39;113084;1242;18617;-70
2022/01/16 03:30:35;;;;;;;;;10.00;10.00;;;;;21.07;47.66;101569.48;113000;1242;19772;-70
2022/01/16 03:33:01;;;;;;;;;12.00;11.00;;;;;21.06;47.47;101560.85;113010;1242;18371;-69
2022/01/16 03:35:27;;;;;;;;;12.00;10.00;;;;;21.06;47.51;101554.52;113030;1242;21029;-70
2022/01/16 03:37:53;;;;;;;;;13.50;11.00;;;;;21.06;47.46;101548.48;113101;1242;19177;-70
2022/01/16 03:40:21;;;;;;;;;11.00;10.00;;;;;21.06;47.46;101548.86;113051;1242;19070;-69
2022/01/16 03:42:47;;;;;;;;;12.00;10.00;;;;;21.06;47.42;101548.04;112982;1242;23188;-71
2022/01/16 03:45:13;;;;;;;;;17.00;13.00;;;;;21.07;47.44;101547.77;113042;1242;19875;-69
2022/01/16 03:47:39;;;;;;;;;13.00;10.00;;;;;21.05;47.49;101544.80;113013;1242;18477;-69
2022/01/16 03:50:05;;;;;;;;;10.00;10.00;;;;;21.05;47.39;101544.69;113005;1242;19198;-69
2022/01/16 03:52:31;;;;;;;;;12.50;11.00;;;;;21.07;47.30;101537.55;113019;1242;19310;-71
2022/01/16 03:54:57;;;;;;;;;10.00;9.00;;;;;21.05;47.55;101529.16;113038;1242;19697;-68
2022/01/16 03:57:23;;;;;;;;;13.50;11.00;;;;;21.06;47.46;101514.95;112979;1242;23072;-71
2022/01/16 03:59:48;;;;;;;;;17.00;12.00;;;;;21.05;47.28;101507.08;112979;1241;19236;-69
2022/01/16 04:02:14;;;;;;;;;8.00;8.00;;;;;21.04;47.25;101501.54;112968;1242;19081;-69
2022/01/16 04:04:40;;;;;;;;;10.00;10.00;;;;;21.05;47.31;101501.78;113022;1242;19847;-68
2022/01/16 04:07:07;;;;;;;;;11.00;10.00;;;;;21.05;47.19;101495.58;113049;1241;19868;-69
2022/01/16 04:09:33;;;;;;;;;12.00;9.67;;;;;21.05;47.38;101500.53;113072;1242;22731;-68
2022/01/16 04:12:00;;;;;;;;;9.00;9.00;;;;;21.05;47.31;101495.59;113057;1241;18613;-68
2022/01/16 04:15:31;;;;;;;;;10.00;9.00;;;;;21.05;47.19;101490.69;113044;1242;20886;-68
2022/01/16 04:17:12;;;;;;;;;10.00;9.33;;;;;21.04;47.30;101480.73;113073;1242;18705;-69
2022/01/16 04:19:38;;;;;;;;;12.00;10.00;;;;;21.03;47.10;101473.64;113064;1241;19389;-68
2022/01/16 04:22:04;;;;;;;;;9.50;9.00;;;;;21.05;47.33;101476.14;113032;1241;19494;-70
2022/01/16 04:24:30;;;;;;;;;12.00;10.00;;;;;21.06;47.21;101474.10;113035;1242;20579;-70
2022/01/16 04:26:56;;;;;;;;;9.00;8.00;;;;;21.06;47.30;101463.33;112979;1241;18531;-70
2022/01/16 04:29:22;;;;;;;;;9.00;9.00;;;;;21.05;47.30;101457.40;113026;1242;21818;-70
2022/01/16 04:31:48;;;;;;;;;13.00;12.00;;;;;21.05;47.09;101451.43;112961;1241;18214;-69
2022/01/16 04:34:14;;;;;;;;;9.00;9.00;;;;;21.04;47.19;101454.09;112971;1242;22132;-68
2022/01/16 04:36:40;;;;;;;;;10.00;9.00;;;;;21.05;47.07;101454.30;112986;1242;20719;-68
2022/01/16 04:39:12;;;;;;;;;10.00;9.00;;;;;21.06;47.21;101455.09;113033;1241;18268;-68
2022/01/16 04:44:22;;;;;;;;;12.00;9.00;;;;;21.05;47.01;101460.67;113045;1242;22168;-69
2022/01/16 04:46:48;;;;;;;;;10.00;8.50;;;;;21.07;47.29;101465.98;112981;1241;20109;-68
2022/01/16 04:49:14;;;;;;;;;10.00;10.00;;;;;21.06;47.14;101464.60;113028;1242;19149;-69
2022/01/16 04:51:39;;;;;;;;;10.00;9.50;;;;;21.06;47.24;101460.41;113007;1242;19722;-68
2022/01/16 04:54:05;;;;;;;;;10.00;9.00;;;;;21.07;47.34;101460.68;113002;1242;18419;-68
2022/01/16 04:56:31;;;;;;;;;10.00;9.50;;;;;21.06;47.18;101459.17;113009;1242;22960;-69
2022/01/16 04:58:57;;;;;;;;;9.00;9.00;;;;;21.06;47.07;101455.46;112960;1241;19613;-69
2022/01/16 05:01:23;;;;;;;;;12.00;12.00;;;;;21.06;47.03;101450.90;113069;1242;21676;-69
2022/01/16 05:03:49;;;;;;;;;12.50;11.00;;;;;21.06;47.18;101441.89;113076;1242;19078;-69
2022/01/16 05:06:14;;;;;;;;;10.00;9.00;;;;;21.06;47.16;101439.14;113046;1242;19413;-69
2022/01/16 05:08:40;;;;;;;;;8.00;8.00;;;;;21.06;46.93;101433.66;113010;1241;18830;-69
2022/01/16 05:11:08;;;;;;;;;11.00;9.50;;;;;21.06;47.03;101434.41;112977;1242;18448;-68
2022/01/16 05:18:58;;;;;;;;;9.00;9.00;;;;;21.05;47.09;101429.03;112993;1241;18653;-68
2022/01/16 05:21:24;;;;;;;;;12.50;11.00;;;;;21.05;47.02;101430.17;113055;1242;20675;-68
2022/01/16 05:23:50;;;;;;;;;13.00;12.00;;;;;21.04;47.02;101428.95;113057;1241;18133;-69
2022/01/16 05:26:17;;;;;;;;;10.00;9.33;;;;;21.05;46.95;101425.98;113019;1242;18596;-70
2022/01/16 05:28:43;;;;;;;;;12.33;10.00;;;;;21.06;46.92;101422.27;113001;1242;20823;-70
2022/01/16 05:31:09;;;;;;;;;9.00;9.00;;;;;21.06;47.01;101414.27;112949;1241;22367;-68
2022/01/16 05:33:35;;;;;;;;;10.00;9.00;;;;;21.05;46.88;101415.66;113034;1242;18570;-69
2022/01/16 05:36:01;;;;;;;;;11.00;10.00;;;;;21.06;46.82;101423.20;113020;1241;19207;-69
2022/01/16 05:38:27;;;;;;;;;12.00;10.00;;;;;21.05;46.83;101419.64;112983;1241;18445;-68
2022/01/16 05:40:52;;;;;;;;;10.00;10.00;;;;;21.05;46.97;101411.33;112967;1241;18478;-69
2022/01/16 05:43:18;;;;;;;;;11.00;9.00;;;;;21.04;46.91;101401.68;112957;1242;21205;-69
2022/01/16 05:45:44;;;;;;;;;12.00;9.00;;;;;21.04;47.02;101396.46;112984;1242;19024;-69
2022/01/16 05:48:10;;;;;;;;;9.00;9.00;;;;;21.04;46.87;101394.83;113015;1242;19052;-69
2022/01/16 05:50:36;;;;;;;;;10.00;8.00;;;;;21.03;46.89;101391.62;113038;1242;19343;-69
2022/01/16 05:53:02;;;;;;;;;11.00;9.50;;;;;21.03;46.76;101388.89;112979;1242;22989;-68
2022/01/16 05:55:33;;;;;;;;;10.00;9.00;;;;;21.01;46.77;101385.38;112960;1242;19145;-68
2022/01/16 05:57:59;;;;;;;;;10.00;9.00;;;;;21.03;46.89;101381.85;112979;1242;21600;-68
2022/01/16 06:00:25;;;;;;;;;8.00;8.00;;;;;21.04;46.74;101379.02;113049;1242;18438;-69
2022/01/16 06:02:51;;;;;;;;;10.00;9.00;;;;;21.04;46.89;101371.16;113052;1241;18457;-70
2022/01/16 06:05:17;;;;;;;;;12.00;10.00;;;;;21.05;46.86;101371.88;112960;1241;19660;-69
2022/01/16 06:07:45;;;;;;;;;8.00;8.00;;;;;21.04;46.60;101370.33;113044;1242;18429;-69
2022/01/16 06:10:11;;;;;;;;;8.67;8.33;;;;;21.03;46.77;101362.63;113080;1241;19628;-68
2022/01/16 06:12:37;;;;;;;;;10.00;10.00;;;;;21.04;46.64;101365.91;113056;1242;19187;-68
2022/01/16 06:15:05;;;;;;;;;9.00;8.50;;;;;21.04;46.73;101356.09;112989;1242;20030;-69
2022/01/16 06:17:30;;;;;;;;;9.33;8.33;;;;;21.04;46.79;101348.16;113039;1242;20905;-71
2022/01/16 06:19:56;;;;;;;;;13.00;12.00;;;;;21.05;46.78;101350.01;112994;1242;19906;-74
2022/01/16 06:22:22;;;;;;;;;12.00;9.00;;;;;21.08;46.82;101345.21;112989;1242;18798;-75
2022/01/16 06:24:48;;;;;;;;;12.00;9.50;;;;;21.11;46.61;101343.41;113033;1242;20334;-72
2022/01/16 06:27:14;;;;;;;;;12.00;9.00;;;;;21.12;46.75;101346.45;113026;1242;19859;-74
2022/01/16 06:29:40;;;;;;;;;10.00;10.00;;;;;21.13;46.71;101347.24;113016;1241;18377;-72
2022/01/16 06:32:06;;;;;;;;;13.00;9.50;;;;;21.13;46.57;101348.09;113051;1242;18473;-72
2022/01/16 06:34:31;;;;;;;;;9.50;8.00;;;;;21.13;46.70;101349.05;112963;1242;19184;-73
2022/01/16 06:36:58;;;;;;;;;10.00;9.00;;;;;21.14;46.69;101345.16;112961;1242;20461;-74
2022/01/16 06:39:24;;;;;;;;;10.00;10.00;;;;;21.16;46.61;101338.89;112952;1242;20133;-73
2022/01/16 06:41:49;;;;;;;;;10.00;9.00;;;;;21.17;46.50;101335.12;112995;1242;19239;-73
2022/01/16 06:44:15;;;;;;;;;12.00;10.00;;;;;21.19;46.40;101332.78;113008;1242;18390;-73
2022/01/16 06:46:41;;;;;;;;;16.00;13.00;;;;;21.19;46.41;101330.77;113093;1242;22912;-73
2022/01/16 06:49:07;;;;;;;;;9.00;8.00;;;;;21.19;46.22;101332.03;113027;1242;21835;-73
2022/01/16 06:51:33;;;;;;;;;12.00;12.00;;;;;21.19;46.28;101333.33;113083;1241;18532;-72
2022/01/16 06:54:01;;;;;;;;;9.00;8.50;;;;;21.18;46.50;101337.71;113085;1242;18535;-72
2022/01/16 06:56:26;;;;;;;;;9.00;9.00;;;;;21.19;46.46;101329.52;113091;1242;20927;-73
2022/01/16 06:58:52;;;;;;;;;9.00;9.00;;;;;21.20;46.61;101328.48;113056;1242;18419;-72
2022/01/16 07:01:18;;;;;;;;;9.00;8.00;;;;;21.20;46.41;101321.02;113103;1241;18398;-73
2022/01/16 07:03:44;;;;;;;;;9.00;8.00;;;;;21.20;46.55;101317.52;113131;1242;19340;-73
2022/01/16 07:06:10;;;;;;;;;12.00;10.00;;;;;21.19;46.57;101316.90;113052;1242;18271;-73
2022/01/16 07:08:36;;;;;;;;;10.00;10.00;;;;;21.18;46.70;101319.56;113081;1242;20142;-73
2022/01/16 07:11:02;;;;;;;;;13.00;10.00;;;;;21.18;46.62;101326.64;113091;1241;19330;-74
2022/01/16 07:13:28;;;;;;;;;11.00;10.00;;;;;21.17;46.78;101332.45;113073;1242;18412;-74
2022/01/16 07:15:54;;;;;;;;;11.00;7.00;;;;;21.18;46.64;101327.73;113021;1241;19181;-73
2022/01/16 07:18:19;;;;;;;;;8.00;8.00;;;;;21.24;46.64;101331.25;113031;1242;19184;-73
2022/01/16 07:20:45;;;;;;;;;10.00;9.00;;;;;21.28;46.84;101325.70;112994;1241;18430;-72
2022/01/16 07:23:11;;;;;;;;;12.50;10.00;;;;;21.30;46.64;101325.41;112899;1242;19127;-73
2022/01/16 07:25:37;;;;;;;;;11.00;11.00;;;;;21.31;46.53;101324.50;112946;1242;23114;-73
2022/01/16 07:28:03;;;;;;;;;12.00;10.00;;;;;21.33;47.12;101321.25;113040;1241;18652;-74
2022/01/16 07:30:29;;;;;;;;;9.00;8.00;;;;;21.33;47.02;101321.21;113105;1242;18844;-73
2022/01/16 07:32:55;;;;;;;;;9.00;9.00;;;;;21.31;47.35;101314.68;113087;1242;20021;-72
2022/01/16 07:35:21;;;;;;;;;8.00;8.00;;;;;21.30;47.44;101311.20;113008;1241;18744;-75
2022/01/16 07:37:47;;;;;;;;;13.00;8.00;;;;;21.30;47.37;101309.23;113024;1242;21349;-74
2022/01/16 07:40:13;;;;;;;;;9.50;8.00;;;;;21.30;47.41;101300.17;112994;1242;21889;-73
2022/01/16 07:42:39;;;;;;;;;9.50;9.50;;;;;21.29;47.47;101301.89;112993;1242;18584;-73
2022/01/16 07:45:05;;;;;;;;;9.50;9.00;;;;;21.29;47.59;101306.90;112952;1241;19111;-72
2022/01/16 07:47:31;;;;;;;;;10.00;9.00;;;;;21.28;47.47;101303.17;113016;1241;19222;-73
2022/01/16 07:49:57;;;;;;;;;12.00;10.00;;;;;21.27;47.53;101303.96;113034;1242;18123;-72
2022/01/16 07:52:22;;;;;;;;;9.00;8.67;;;;;21.31;47.51;101304.93;113048;1242;21475;-68
2022/01/16 07:54:48;;;;;;;;;12.00;10.00;;;;;21.32;47.95;101309.13;113070;1241;19251;-68
2022/01/16 07:57:14;;;;;;;;;11.00;9.50;;;;;21.34;48.00;101309.36;113037;1242;18472;-69
2022/01/16 07:59:40;;;;;;;;;9.00;8.00;;;;;21.30;48.44;101310.66;113011;1242;18764;-69
2022/01/16 08:02:06;;;;;;;;;9.50;9.00;;;;;21.32;48.56;101315.33;113083;1242;20621;-67
2022/01/16 08:04:32;;;;;;;;;13.00;10.00;;;;;21.33;48.41;101308.64;113027;1242;18547;-68
2022/01/16 08:06:58;;;;;;;;;10.00;8.00;;;;;21.31;48.66;101300.60;113048;1242;19188;-66
2022/01/16 08:09:23;;;;;;;;;8.00;8.00;;;;;21.34;48.50;101297.67;112999;1242;22243;-67
2022/01/16 08:11:49;;;;;;;;;10.00;8.00;;;;;21.35;49.11;101294.67;113007;1242;18521;-67
2022/01/16 08:14:15;;;;;;;;;8.50;8.50;;;;;21.36;49.30;101297.10;113040;1242;19277;-70
2022/01/16 08:16:41;;;;;;;;;11.00;9.50;;;;;21.41;49.81;101299.80;113048;1242;19185;-69
2022/01/16 08:19:07;;;;;;;;;9.00;8.00;;;;;21.44;49.77;101304.92;113048;1242;18302;-68
2022/01/16 08:21:33;;;;;;;;;9.00;9.00;;;;;21.45;49.45;101295.58;113058;1242;18655;-69
2022/01/16 08:24:03;;;;;;;;;12.00;10.00;;;;;21.45;49.59;101288.68;113022;1242;19346;-67
2022/01/16 08:26:29;;;;;;;;;10.00;9.33;;;;;21.43;50.02;101289.58;113000;1241;19036;-67
2022/01/16 08:28:55;;;;;;;;;9.50;9.00;;;;;21.45;50.43;101293.44;112996;1242;18583;-67
2022/01/16 08:31:21;;;;;;;;;12.00;9.00;;;;;21.49;50.86;101275.68;113007;1242;20064;-68
2022/01/16 08:33:47;;;;;;;;;10.00;10.00;;;;;21.48;50.98;101268.73;112964;1242;18579;-68
2022/01/16 08:36:12;;;;;;;;;13.00;10.00;;;;;21.48;50.95;101271.39;112876;1242;19316;-68
2022/01/16 08:38:38;;;;;;;;;10.00;9.00;;;;;21.48;50.46;101273.20;112946;1241;19205;-68
2022/01/16 08:41:05;;;;;;;;;11.33;9.67;;;;;21.50;50.60;101274.70;113033;1242;18941;-66
2022/01/16 08:43:30;;;;;;;;;12.00;10.00;;;;;21.51;50.34;101277.48;113063;1241;18433;-67
2022/01/16 08:45:56;;;;;;;;;12.50;9.50;;;;;21.51;50.28;101272.17;113044;1242;19286;-67
2022/01/16 08:48:22;;;;;;;;;13.00;12.00;;;;;21.52;50.79;101269.34;113050;1242;21234;-66
2022/01/16 08:50:48;;;;;;;;;9.50;9.00;;;;;21.54;50.90;101268.80;113036;1242;22128;-67
2022/01/16 08:53:14;;;;;;;;;11.00;9.00;;;;;21.51;50.80;101271.02;113043;1241;19223;-72
2022/01/16 08:55:40;;;;;;;;;10.00;9.00;;;;;21.48;50.37;101265.22;113057;1242;22848;-66
2022/01/16 08:58:06;;;;;;;;;9.50;9.00;;;;;21.47;50.61;101252.41;113029;1241;18544;-68
2022/01/16 09:00:32;;;;;;;;;8.00;8.00;;;;;21.48;50.52;101254.01;112970;1242;19321;-69
2022/01/16 09:02:58;;;;;;;;;9.00;9.00;;;;;21.49;50.64;101256.39;113046;1242;22206;-68
2022/01/16 09:05:24;;;;;;;;;9.50;9.00;;;;;21.47;50.93;101245.85;112923;1241;20441;-68
2022/01/16 09:07:50;;;;;;;;;12.00;12.00;;;;;21.48;50.71;101236.89;112906;1242;19236;-68
2022/01/16 09:10:15;;;;;;;;;13.00;9.00;;;;;21.46;50.60;101234.35;112969;1241;18396;-70
2022/01/16 09:12:41;;;;;;;;;14.00;12.00;;;;;21.43;50.52;101230.50;113104;1242;18677;-69
2022/01/16 09:15:07;;;;;;;;;10.00;9.50;;;;;21.43;50.91;101228.88;112900;1242;19772;-69
2022/01/16 09:17:33;;;;;;;;;13.00;13.00;;;;;21.44;50.73;101223.54;113033;1242;18909;-70
2022/01/16 09:19:59;;;;;;;;;10.00;9.00;;;;;21.40;50.78;101217.87;113040;1242;19227;-67
2022/01/16 09:22:25;;;;;;;;;12.00;12.00;;;;;21.46;50.55;101224.06;113020;1242;20589;-66
2022/01/16 09:24:51;;;;;;;;;12.00;10.00;;;;;21.45;50.72;101219.05;113051;1241;18415;-64
2022/01/16 09:27:18;;;;;;;;;12.50;11.00;;;;;21.46;51.09;101220.52;112928;1242;18557;-69
2022/01/16 09:29:44;;;;;;;;;10.00;9.00;;;;;21.48;50.68;101219.30;112983;1242;19453;-66
2022/01/16 09:32:13;;;;;;;;;10.00;10.00;;;;;21.46;50.95;101217.66;112991;1241;19115;-67
2022/01/16 09:34:39;;;;;;;;;9.67;9.33;;;;;21.48;50.43;101219.67;112977;1242;18879;-70
2022/01/16 09:37:08;;;;;;;;;12.50;12.50;;;;;21.48;50.58;101214.52;113044;1242;20671;-67
2022/01/16 09:39:35;;;;;;;;;16.00;13.00;;;;;21.49;50.67;101207.54;113125;1241;18626;-69
2022/01/16 09:42:00;;;;;;;;;12.00;10.00;;;;;21.50;50.80;101199.35;113018;1241;19261;-68
2022/01/16 09:44:26;;;;;;;;;13.00;10.00;;;;;21.51;50.93;101197.40;113029;1241;19390;-69
2022/01/16 09:46:52;;;;;;;;;14.00;13.50;;;;;21.51;51.98;101193.82;113038;1242;21709;-68
2022/01/16 09:49:18;;;;;;;;;16.00;14.00;;;;;21.54;54.00;101188.38;113039;1242;18508;-68
2022/01/16 09:51:44;;;;;;;;;14.00;13.33;;;;;21.57;55.30;101184.44;112935;1242;19263;-68
2022/01/16 09:54:10;;;;;;;;;14.00;13.00;;;;;21.55;55.83;101181.17;113996;1242;18375;-70
2022/01/16 09:56:36;;;;;;;;;12.00;12.00;;;;;21.56;56.29;101173.94;113701;1241;19197;-71
2022/01/16 09:59:02;;;;;;;;;14.00;14.00;;;;;21.58;56.23;101171.73;113002;1241;20087;-70
2022/01/16 10:01:28;;;;;;;;;12.00;12.00;;;;;21.60;55.71;101161.56;113028;1242;19197;-71
2022/01/16 10:03:54;;;;;;;;;14.00;14.00;;;;;21.65;56.98;101162.95;113039;1241;18472;-70
2022/01/16 10:06:20;;;;;;;;;17.00;14.00;;;;;21.67;57.06;101159.71;113029;1242;19246;-67
2022/01/16 10:08:46;;;;;;;;;16.00;14.00;;;;;21.68;56.20;101157.73;112953;1242;19044;-68
2022/01/16 10:11:12;;;;;;;;;16.00;13.00;;;;;21.67;56.89;101153.13;112933;1242;21508;-70
2022/01/16 10:13:42;;;;;;;;;14.00;13.00;;;;;21.61;56.29;101147.00;112949;1241;19235;-71
2022/01/16 10:16:08;;;;;;;;;15.33;12.33;;;;;21.58;56.77;101139.14;113054;1241;19633;-69
2022/01/16 10:18:34;;;;;;;;;12.67;12.67;;;;;21.57;57.25;101132.89;112989;1242;18960;-69
2022/01/16 10:21:00;;;;;;;;;13.50;11.00;;;;;21.56;57.28;101131.26;112994;1242;19332;-68
2022/01/16 10:23:26;;;;;;;;;16.00;14.00;;;;;21.56;56.78;101125.84;113001;1241;23172;-68
2022/01/16 10:25:52;;;;;;;;;17.00;16.00;;;;;21.56;56.43;101123.00;113018;1242;18800;-70
2022/01/16 10:28:18;;;;;;;;;13.50;12.50;;;;;21.56;56.06;101123.24;113018;1242;19118;-69
2022/01/16 10:30:44;;;;;;;;;12.50;12.00;;;;;21.53;55.22;101120.11;113018;1242;18537;-69
2022/01/16 10:33:10;;;;;;;;;16.00;12.00;;;;;21.50;55.12;101120.76;113031;1242;18543;-69
2022/01/16 10:35:35;;;;;;;;;13.00;12.00;;;;;21.53;55.19;101117.63;113007;1242;21005;-68
2022/01/16 10:38:01;;;;;;;;;12.50;11.00;;;;;21.53;54.65;101107.20;113010;1241;18456;-69
2022/01/16 10:40:27;;;;;;;;;15.00;13.50;;;;;21.55;53.92;101095.70;112991;1242;18828;-68
2022/01/16 10:42:53;;;;;;;;;13.50;13.50;;;;;21.54;54.36;101090.86;113064;1241;19148;-68
2022/01/16 10:45:19;;;;;;;;;13.50;13.00;;;;;21.55;54.20;101089.39;113023;1242;18579;-69
2022/01/16 10:47:45;;;;;;;;;12.50;12.00;;;;;21.57;53.83;101084.88;113038;1242;19049;-68
2022/01/16 10:50:11;;;;;;;;;16.50;13.00;;;;;21.57;53.09;101084.67;113020;1242;19119;-68
2022/01/16 10:52:36;;;;;;;;;13.50;10.00;;;;;21.58;52.94;101077.39;113017;1242;19082;-73
2022/01/16 10:55:02;;;;;;;;;13.00;10.00;;;;;21.57;53.13;101071.41;112972;1241;20940;-74
2022/01/16 10:57:28;;;;;;;;;13.50;13.00;;;;;21.58;53.05;101057.91;113023;1241;19771;-74
2022/01/16 10:59:54;;;;;;;;;12.00;12.00;;;;;21.60;52.86;101053.68;113032;1242;18341;-74
2022/01/16 11:02:20;;;;;;;;;13.00;12.50;;;;;21.59;52.76;101048.30;113021;1242;18576;-74
2022/01/16 11:04:46;;;;;;;;;12.00;12.00;;;;;21.57;52.24;101044.92;113043;1242;20420;-72
2022/01/16 11:07:12;;;;;;;;;16.00;13.00;;;;;21.55;51.86;101037.02;112999;1242;19227;-74
2022/01/16 11:09:38;;;;;;;;;13.00;12.00;;;;;21.57;51.55;101034.95;113087;1242;22303;-72
2022/01/16 11:12:03;;;;;;;;;15.00;13.50;;;;;21.55;51.52;101031.46;113081;1242;19358;-67
2022/01/16 11:14:29;;;;;;;;;11.00;11.00;;;;;21.54;51.51;101026.87;113068;1242;18949;-70
2022/01/16 11:16:55;;;;;;;;;11.00;10.00;;;;;21.56;51.69;101021.43;112996;1242;18752;-70
2022/01/16 11:19:22;;;;;;;;;15.00;13.00;;;;;21.54;51.87;101016.54;113030;1242;19206;-68
2022/01/16 11:21:49;;;;;;;;;17.00;13.00;;;;;21.51;51.86;101005.60;113047;1242;20161;-70
2022/01/16 11:24:26;;;;;;;;;12.67;12.00;;;;;21.50;51.70;101000.59;112944;1242;19474;-70
2022/01/16 11:26:52;;;;;;;;;14.00;13.67;;;;;21.50;51.58;100994.83;113018;1242;21413;-70
2022/01/16 11:29:18;;;;;;;;;12.50;12.00;;;;;21.46;51.49;100994.33;112335;1242;832035;-70
2022/01/16 11:31:44;;;;;;;;;14.00;12.00;;;;;21.45;51.42;100993.04;113013;1242;18610;-71
2022/01/16 11:34:09;;;;;;;;;14.00;13.00;;;;;21.41;51.09;100994.91;113077;1242;19357;-70
2022/01/16 11:36:35;;;;;;;;;15.00;15.00;;;;;21.38;50.40;100991.25;113042;1241;18468;-71
2022/01/16 11:39:01;;;;;;;;;16.00;12.50;;;;;21.37;50.13;100986.48;113019;1242;19487;-70
2022/01/16 11:41:32;;;;;;;;;17.50;14.00;;;;;21.35;50.34;100980.36;113021;1242;19770;-70